createdAt,value
2018-05-31T00:02:12.060Z,118.27
2018-05-31T00:04:41.088Z,113.90
2018-05-31T00:07:10.014Z,113.00
2018-05-31T00:09:38.293Z,116.70
2018-05-31T00:12:06.691Z,120.17
2018-05-31T00:14:35.178Z,118.57
2018-05-31T00:17:04.243Z,121.43
2018-05-31T00:19:32.553Z,120.60
2018-05-31T00:22:00.812Z,117.67
2018-05-31T00:24:30.108Z,128.43
2018-05-31T00:26:58.354Z,123.47
2018-05-31T00:29:26.788Z,131.17
2018-05-31T00:31:55.053Z,136.27
2018-05-31T00:34:23.334Z,144.67
2018-05-31T00:36:51.524Z,132.47
2018-05-31T00:39:20.791Z,128.60
2018-05-31T00:41:49.082Z,127.97
2018-05-31T00:44:17.309Z,131.40
2018-05-31T00:46:46.474Z,130.83
2018-05-31T00:49:14.716Z,132.90
2018-05-31T00:51:43.673Z,135.33
2018-05-31T00:54:11.964Z,137.87
2018-05-31T00:56:41.026Z,136.87
2018-05-31T00:59:09.263Z,144.13
2018-05-31T01:01:38.597Z,145.57
2018-05-31T01:04:06.889Z,149.60
2018-05-31T01:06:35.137Z,140.50
2018-05-31T01:09:03.339Z,136.60
2018-05-31T01:11:32.343Z,143.33
2018-05-31T01:14:02.067Z,131.47
2018-05-31T01:16:31.120Z,124.57
2018-05-31T01:18:59.409Z,135.67
2018-05-31T01:21:28.524Z,123.43
2018-05-31T01:23:56.921Z,142.97
2018-05-31T01:26:26.021Z,148.13
2018-05-31T01:28:55.281Z,141.10
2018-05-31T01:31:23.771Z,139.53
2018-05-31T01:33:52.067Z,141.27
2018-05-31T01:36:21.190Z,138.40
2018-05-31T01:38:49.763Z,144.50
2018-05-31T01:41:18.889Z,128.23
2018-05-31T01:43:47.202Z,131.00
2018-05-31T01:46:15.498Z,135.50
2018-05-31T01:48:43.826Z,146.20
2018-05-31T01:51:12.953Z,149.40
2018-05-31T01:53:41.264Z,149.47
2018-05-31T01:56:12.244Z,146.53
2018-05-31T01:58:40.592Z,137.43
2018-05-31T02:01:08.824Z,155.47
2018-05-31T02:03:38.665Z,143.47
2018-05-31T02:06:06.899Z,146.47
2018-05-31T02:08:35.864Z,131.73
2018-05-31T02:11:05.005Z,135.40
2018-05-31T02:13:33.229Z,121.70
2018-05-31T02:16:02.568Z,129.47
2018-05-31T02:18:31.572Z,137.80
2018-05-31T02:20:59.792Z,132.47
2018-05-31T02:23:28.048Z,127.20
2018-05-31T02:25:56.364Z,117.33
2018-05-31T02:28:24.664Z,120.50
2018-05-31T02:30:53.568Z,125.90
2018-05-31T02:33:21.778Z,131.67
2018-05-31T02:35:50.016Z,133.03
2018-05-31T02:38:19.192Z,135.50
2018-05-31T02:40:47.557Z,128.70
2018-05-31T02:43:15.930Z,127.73
2018-05-31T02:45:44.190Z,127.00
2018-05-31T02:48:12.421Z,123.57
2018-05-31T02:50:40.759Z,136.10
2018-05-31T02:53:09.029Z,136.93
2018-05-31T02:55:37.375Z,147.60
2018-05-31T02:58:06.032Z,148.73
2018-05-31T03:00:35.829Z,144.40
2018-05-31T03:03:04.623Z,138.20
2018-05-31T03:05:32.945Z,136.40
2018-05-31T03:08:01.925Z,171.67
2018-05-31T03:10:30.265Z,174.83
2018-05-31T03:12:58.901Z,177.73
2018-05-31T03:15:28.032Z,178.13
2018-05-31T03:17:56.331Z,182.90
2018-05-31T03:20:24.559Z,176.93
2018-05-31T03:22:52.811Z,155.20
2018-05-31T03:25:21.821Z,169.33
2018-05-31T03:27:51.589Z,148.17
2018-05-31T03:30:22.946Z,143.13
2018-05-31T03:32:52.054Z,145.20
2018-05-31T03:35:20.341Z,161.33
2018-05-31T03:37:48.825Z,163.53
2018-05-31T03:40:17.307Z,163.03
2018-05-31T03:42:45.570Z,148.50
2018-05-31T03:45:14.717Z,139.87
2018-05-31T03:47:43.113Z,160.60
2018-05-31T03:50:11.749Z,151.37
2018-05-31T03:52:41.597Z,163.20
2018-05-31T03:55:10.441Z,162.27
2018-05-31T03:57:38.704Z,167.53
2018-05-31T04:00:06.984Z,172.30
2018-05-31T04:02:35.272Z,181.67
2018-05-31T04:05:04.813Z,163.47
2018-05-31T04:07:34.012Z,154.80
2018-05-31T04:10:02.339Z,150.63
2018-05-31T04:12:30.862Z,148.47
2018-05-31T04:14:59.993Z,161.93
2018-05-31T04:17:29.058Z,172.63
2018-05-31T04:19:58.056Z,172.00
2018-05-31T04:22:27.260Z,169.80
2018-05-31T04:24:56.341Z,169.80
2018-05-31T04:27:24.745Z,180.57
2018-05-31T04:29:53.212Z,180.87
2018-05-31T04:32:21.620Z,188.27
2018-05-31T04:34:50.723Z,180.63
2018-05-31T04:37:20.572Z,179.40
2018-05-31T04:39:48.929Z,181.17
2018-05-31T04:42:18.077Z,192.30
2018-05-31T04:44:47.375Z,195.37
2018-05-31T04:47:16.025Z,197.70
2018-05-31T04:49:44.547Z,193.80
2018-05-31T04:52:12.824Z,182.57
2018-05-31T04:54:41.145Z,188.33
2018-05-31T04:57:10.031Z,194.67
2018-05-31T04:59:39.204Z,193.47
2018-05-31T05:02:07.628Z,192.83
2018-05-31T05:04:36.060Z,184.93
2018-05-31T05:07:04.348Z,178.20
2018-05-31T05:09:32.603Z,166.20
2018-05-31T05:12:00.897Z,181.23
2018-05-31T05:14:29.323Z,172.03
2018-05-31T05:16:57.948Z,188.97
2018-05-31T05:19:26.245Z,190.00
2018-05-31T05:21:54.527Z,175.50
2018-05-31T05:24:22.744Z,186.70
2018-05-31T05:26:51.865Z,185.00
2018-05-31T05:29:20.115Z,185.10
2018-05-31T05:31:48.349Z,181.77
2018-05-31T05:34:16.634Z,191.53
2018-05-31T05:36:45.019Z,197.50
2018-05-31T05:39:13.277Z,196.30
2018-05-31T05:41:41.495Z,180.27
2018-05-31T05:44:10.492Z,197.33
2018-05-31T05:46:39.590Z,197.43
2018-05-31T05:49:08.764Z,210.60
2018-05-31T05:51:37.050Z,195.10
2018-05-31T05:54:06.347Z,176.37
2018-05-31T05:56:34.657Z,184.90
2018-05-31T05:59:03.806Z,184.60
2018-05-31T06:01:32.885Z,182.37
2018-05-31T06:04:01.677Z,173.13
2018-05-31T06:06:30.104Z,189.23
2018-05-31T06:08:58.392Z,178.23
2018-05-31T06:11:26.714Z,183.93
2018-05-31T06:13:54.998Z,178.77
2018-05-31T06:16:24.047Z,168.37
2018-05-31T06:18:52.387Z,166.00
2018-05-31T06:21:21.458Z,150.90
2018-05-31T06:23:49.699Z,152.00
2018-05-31T06:26:18.941Z,163.23
2018-05-31T06:28:47.114Z,157.23
2018-05-31T06:31:16.406Z,158.57
2018-05-31T06:33:44.674Z,160.93
2018-05-31T06:36:12.943Z,172.37
2018-05-31T06:38:42.046Z,182.87
2018-05-31T06:41:11.122Z,181.40
2018-05-31T06:43:39.370Z,187.43
2018-05-31T06:46:07.570Z,200.27
2018-05-31T06:48:36.570Z,199.13
2018-05-31T06:51:04.773Z,200.43
2018-05-31T06:53:34.371Z,197.40
2018-05-31T06:56:03.474Z,182.40
2018-05-31T06:58:31.799Z,166.03
2018-05-31T07:01:00.016Z,173.17
2018-05-31T07:03:28.828Z,179.27
2018-05-31T07:05:57.781Z,153.13
2018-05-31T07:08:26.025Z,147.17
2018-05-31T07:10:54.272Z,150.80
2018-05-31T07:13:22.483Z,137.40
2018-05-31T07:15:50.696Z,140.53
2018-05-31T07:18:18.945Z,114.40
2018-05-31T07:20:47.209Z,117.43
2018-05-31T07:23:15.518Z,107.03
2018-05-31T07:25:44.417Z,104.53
2018-05-31T07:28:12.619Z,108.07
2018-05-31T07:30:41.622Z,102.47
2018-05-31T07:33:09.851Z,98.70
2018-05-31T07:35:38.125Z,93.90
2018-05-31T07:38:06.505Z,93.73
2018-05-31T07:40:34.784Z,89.20
2018-05-31T07:43:03.819Z,85.23
2018-05-31T07:45:32.161Z,85.43
2018-05-31T07:48:00.394Z,82.93
2018-05-31T07:50:29.349Z,84.00
2018-05-31T07:52:57.539Z,74.10
2018-05-31T07:55:26.495Z,56.07
2018-05-31T07:57:55.550Z,54.77
2018-05-31T08:00:23.742Z,55.83
2018-05-31T08:02:51.924Z,57.33
2018-05-31T08:05:20.132Z,58.60
2018-05-31T08:07:48.474Z,51.20
2018-05-31T08:10:17.889Z,48.53
2018-05-31T08:12:46.104Z,46.60
2018-05-31T08:15:14.366Z,47.53
2018-05-31T08:17:42.572Z,52.37
2018-05-31T08:20:12.371Z,47.40
2018-05-31T08:22:40.756Z,52.83
2018-05-31T08:25:08.990Z,52.50
2018-05-31T08:27:37.290Z,45.87
2018-05-31T08:30:05.506Z,48.50
2018-05-31T08:32:33.713Z,48.27
2018-05-31T08:35:03.941Z,53.17
2018-05-31T08:37:32.364Z,56.17
2018-05-31T08:40:00.684Z,56.87
2018-05-31T08:42:29.899Z,45.77
2018-05-31T08:44:58.217Z,45.10
2018-05-31T08:47:27.275Z,37.10
2018-05-31T08:49:56.417Z,46.83
2018-05-31T08:52:24.792Z,71.47
2018-05-31T08:54:53.040Z,72.77
2018-05-31T08:57:21.300Z,80.80
2018-05-31T08:59:50.541Z,76.63
2018-05-31T09:02:18.820Z,81.73
2018-05-31T09:04:47.217Z,78.97
2018-05-31T09:07:15.689Z,78.87
2018-05-31T09:09:44.543Z,70.30
2018-05-31T09:12:12.789Z,67.10
2018-05-31T09:14:41.109Z,56.90
2018-05-31T09:17:10.244Z,55.47
2018-05-31T09:19:38.560Z,52.37
2018-05-31T09:22:07.609Z,53.13
2018-05-31T09:24:35.813Z,50.37
2018-05-31T09:27:04.945Z,54.23
2018-05-31T09:29:33.892Z,60.00
2018-05-31T09:32:02.089Z,60.97
2018-05-31T09:34:30.245Z,61.30
2018-05-31T09:36:58.483Z,60.33
2018-05-31T09:39:26.785Z,62.80
2018-05-31T09:41:55.018Z,64.43
2018-05-31T09:44:23.979Z,60.23
2018-05-31T09:46:52.751Z,48.77
2018-05-31T09:49:21.226Z,50.43
2018-05-31T09:51:49.450Z,44.70
2018-05-31T09:54:18.411Z,42.47
2018-05-31T09:56:46.625Z,40.13
2018-05-31T09:59:16.310Z,36.57
2018-05-31T10:01:44.534Z,37.43
2018-05-31T10:04:13.498Z,34.67
2018-05-31T10:06:41.759Z,35.00
2018-05-31T10:09:10.028Z,29.07
2018-05-31T10:11:38.266Z,34.23
2018-05-31T10:14:06.502Z,30.80
2018-05-31T10:16:34.803Z,32.50
2018-05-31T10:19:03.824Z,33.80
2018-05-31T10:21:32.117Z,29.40
2018-05-31T10:24:00.606Z,26.30
2018-05-31T10:26:29.950Z,28.93
2018-05-31T10:28:58.825Z,29.67
2018-05-31T10:31:27.856Z,25.97
2018-05-31T10:33:57.057Z,21.00
2018-05-31T10:36:25.298Z,20.13
2018-05-31T10:38:53.606Z,19.47
2018-05-31T10:41:22.352Z,20.80
2018-05-31T10:43:52.887Z,17.73
2018-05-31T10:46:22.180Z,17.53
2018-05-31T10:48:50.780Z,18.33
2018-05-31T10:51:19.065Z,17.60
2018-05-31T10:53:47.580Z,15.97
2018-05-31T10:56:16.077Z,15.43
2018-05-31T10:58:44.281Z,14.37
2018-05-31T11:01:12.503Z,13.57
2018-05-31T11:03:40.868Z,14.63
2018-05-31T11:06:10.042Z,15.10
2018-05-31T11:08:38.285Z,13.47
2018-05-31T11:11:07.244Z,16.30
2018-05-31T11:13:35.488Z,15.37
2018-05-31T11:16:03.969Z,15.07
2018-05-31T11:18:32.636Z,11.60
2018-05-31T11:21:00.850Z,12.37
2018-05-31T11:23:29.091Z,13.93
2018-05-31T11:25:57.591Z,14.40
2018-05-31T11:28:25.825Z,16.20
2018-05-31T11:30:54.815Z,17.33
2018-05-31T11:33:23.001Z,14.00
2018-05-31T11:35:52.167Z,16.80
2018-05-31T11:38:20.535Z,17.23
2018-05-31T11:40:48.824Z,17.50
2018-05-31T11:43:17.858Z,20.23
2018-05-31T11:45:46.863Z,17.03
2018-05-31T11:48:15.079Z,18.73
2018-05-31T11:50:43.341Z,16.40
2018-05-31T11:53:11.563Z,18.17
2018-05-31T11:55:40.017Z,15.97
2018-05-31T11:58:08.725Z,16.50
2018-05-31T12:00:38.491Z,16.53
2018-05-31T12:03:06.935Z,18.53
2018-05-31T12:05:36.807Z,13.37
2018-05-31T12:08:05.535Z,11.70
2018-05-31T12:10:34.985Z,12.40
2018-05-31T12:13:03.235Z,12.77
2018-05-31T12:15:32.240Z,12.50
2018-05-31T12:18:01.482Z,8.40
2018-05-31T12:20:29.690Z,14.33
2018-05-31T12:22:58.680Z,10.33
2018-05-31T12:25:28.512Z,9.70
2018-05-31T12:27:57.577Z,8.07
2018-05-31T12:30:25.811Z,7.33
2018-05-31T12:32:54.038Z,8.53
2018-05-31T12:35:23.312Z,9.80
2018-05-31T12:37:51.714Z,8.80
2018-05-31T12:40:20.140Z,8.68
2018-05-31T12:42:49.200Z,7.82
2018-05-31T12:45:17.550Z,9.20
2018-05-31T12:47:45.945Z,10.27
2018-05-31T12:50:14.256Z,9.23
2018-05-31T12:52:42.615Z,9.27
2018-05-31T12:55:10.896Z,12.40
2018-05-31T12:57:39.479Z,10.40
2018-05-31T13:00:07.681Z,11.30
2018-05-31T13:02:35.866Z,8.60
2018-05-31T13:05:04.097Z,11.20
2018-05-31T13:07:32.383Z,10.27
2018-05-31T13:10:00.581Z,8.88
2018-05-31T13:12:29.015Z,14.20
2018-05-31T13:14:57.800Z,12.55
2018-05-31T13:17:26.061Z,12.52
2018-05-31T13:19:54.376Z,12.93
2018-05-31T13:22:22.880Z,9.40
2018-05-31T13:24:51.251Z,11.77
2018-05-31T13:27:19.625Z,11.23
2018-05-31T13:29:47.846Z,12.17
2018-05-31T13:32:16.273Z,10.77
2018-05-31T13:34:44.482Z,11.30
2018-05-31T13:37:12.806Z,12.87
2018-05-31T13:39:41.115Z,13.30
2018-05-31T13:42:09.726Z,13.43
2018-05-31T13:44:38.142Z,14.90
2018-05-31T13:47:06.464Z,13.67
2018-05-31T13:49:35.961Z,14.17
2018-05-31T13:52:04.748Z,15.50
2018-05-31T13:54:33.008Z,13.03
2018-05-31T13:57:01.418Z,12.27
2018-05-31T13:59:29.630Z,12.80
2018-05-31T14:01:58.618Z,10.87
2018-05-31T14:04:27.643Z,13.60
2018-05-31T14:06:56.982Z,12.47
2018-05-31T14:09:25.386Z,14.03
2018-05-31T14:11:53.615Z,11.50
2018-05-31T14:14:21.861Z,13.67
2018-05-31T14:16:50.206Z,12.90
2018-05-31T14:19:18.474Z,13.63
2018-05-31T14:21:46.975Z,13.97
2018-05-31T14:24:15.258Z,153.73
2018-05-31T14:26:43.445Z,16.00
2018-05-31T14:29:12.509Z,17.60
2018-05-31T14:31:40.939Z,14.87
2018-05-31T14:34:09.232Z,14.70
2018-05-31T14:36:37.478Z,16.33
2018-05-31T14:39:06.521Z,15.13
2018-05-31T14:41:34.853Z,16.80
2018-05-31T14:44:03.133Z,16.43
2018-05-31T14:46:31.409Z,14.87
2018-05-31T14:48:59.751Z,15.10
2018-05-31T14:51:27.975Z,17.47
2018-05-31T14:53:56.444Z,14.87
2018-05-31T14:56:24.708Z,14.03
2018-05-31T14:58:53.601Z,15.97
2018-05-31T15:01:22.772Z,15.10
2018-05-31T15:03:51.231Z,18.67
2018-05-31T15:06:20.289Z,14.43
2018-05-31T15:08:49.389Z,16.80
2018-05-31T15:11:17.692Z,13.77
2018-05-31T15:13:46.035Z,15.30
2018-05-31T15:16:14.255Z,12.37
2018-05-31T15:18:43.312Z,12.23
2018-05-31T15:21:11.624Z,15.00
2018-05-31T15:23:40.259Z,14.43
2018-05-31T15:26:18.590Z,12.70
2018-05-31T15:28:46.986Z,13.47
2018-05-31T15:31:15.610Z,15.57
2018-05-31T15:33:44.010Z,14.57
2018-05-31T15:36:12.319Z,11.20
2018-05-31T15:38:40.558Z,12.87
2018-05-31T15:41:09.993Z,13.23
2018-05-31T15:43:38.231Z,11.43
2018-05-31T15:46:07.367Z,11.50
2018-05-31T15:48:35.634Z,12.37
2018-05-31T15:51:03.858Z,12.20
2018-05-31T15:53:33.607Z,13.20
2018-05-31T15:56:01.832Z,15.37
2018-05-31T15:58:31.052Z,12.47
2018-05-31T16:00:59.398Z,13.90
2018-05-31T16:03:27.659Z,14.57
2018-05-31T16:05:55.961Z,14.73
2018-05-31T16:08:24.760Z,14.87
2018-05-31T16:10:53.894Z,13.87
2018-05-31T16:13:22.225Z,14.27
2018-05-31T16:15:50.844Z,16.40
2018-05-31T16:18:22.362Z,13.87
2018-05-31T16:20:50.698Z,14.27
2018-05-31T16:23:19.852Z,16.33
2018-05-31T16:25:48.219Z,12.23
2018-05-31T16:28:17.096Z,12.23
2018-05-31T16:30:45.320Z,14.10
2018-05-31T16:33:13.627Z,14.43
2018-05-31T16:35:42.868Z,13.17
2018-05-31T16:38:11.779Z,13.17
2018-05-31T16:40:41.180Z,13.17
2018-05-31T16:43:09.993Z,11.40
2018-05-31T16:45:39.035Z,11.57
2018-05-31T16:48:07.261Z,12.67
2018-05-31T16:50:35.505Z,12.37
2018-05-31T16:53:03.790Z,12.80
2018-05-31T16:55:32.167Z,11.10
2018-05-31T16:58:00.553Z,12.60
2018-05-31T17:00:28.771Z,12.37
2018-05-31T17:02:57.790Z,14.37
2018-05-31T17:05:26.071Z,19.10
2018-05-31T17:07:54.314Z,13.43
2018-05-31T17:10:24.091Z,12.27
2018-05-31T17:12:52.570Z,12.27
2018-05-31T17:15:20.843Z,15.13
2018-05-31T17:17:49.244Z,12.17
2018-05-31T17:20:17.571Z,15.07
2018-05-31T17:22:46.604Z,13.30
2018-05-31T17:25:15.265Z,12.30
2018-05-31T17:27:43.630Z,10.90
2018-05-31T17:30:12.609Z,10.00
2018-05-31T17:32:40.897Z,10.50
2018-05-31T17:35:09.137Z,9.80
2018-05-31T17:37:38.200Z,9.30
2018-05-31T17:40:06.505Z,12.57
2018-05-31T17:42:34.862Z,12.13
2018-05-31T17:45:03.108Z,11.93
2018-05-31T17:47:32.170Z,11.87
2018-05-31T17:50:01.251Z,13.70
2018-05-31T17:52:30.132Z,9.10
2018-05-31T17:54:58.350Z,10.40
2018-05-31T17:57:28.136Z,11.57
2018-05-31T17:59:56.838Z,13.27
2018-05-31T18:02:28.014Z,10.50
2018-05-31T18:04:56.357Z,10.33
2018-05-31T18:07:25.365Z,9.53
2018-05-31T18:09:53.599Z,11.87
2018-05-31T18:12:22.133Z,10.83
2018-05-31T18:14:52.379Z,9.60
2018-05-31T18:17:23.318Z,10.60
2018-05-31T18:19:51.661Z,10.23
2018-05-31T18:22:19.962Z,11.57
2018-05-31T18:24:48.903Z,10.10
2018-05-31T18:27:21.542Z,10.30
2018-05-31T18:30:02.896Z,13.33
2018-05-31T18:32:32.011Z,13.47
2018-05-31T18:35:00.351Z,11.90
2018-05-31T18:37:28.838Z,12.33
2018-05-31T18:39:57.321Z,13.03
2018-05-31T18:42:25.719Z,11.50
2018-05-31T18:44:54.108Z,13.83
2018-05-31T18:47:22.979Z,13.87
2018-05-31T18:49:51.377Z,15.83
2018-05-31T18:52:19.902Z,14.43
2018-05-31T18:54:48.913Z,13.00
2018-05-31T18:57:17.333Z,13.67
2018-05-31T18:59:46.632Z,15.37
2018-05-31T19:02:14.945Z,16.23
2018-05-31T19:04:44.015Z,13.93
2018-05-31T19:07:15.353Z,16.30
2018-05-31T19:09:44.519Z,14.93
2018-05-31T19:12:12.747Z,18.60
2018-05-31T19:14:41.017Z,18.53
2018-05-31T19:17:09.301Z,16.77
2018-05-31T19:19:43.441Z,18.10
2018-05-31T19:22:12.029Z,18.03
2018-05-31T19:24:47.737Z,21.47
2018-05-31T19:27:16.077Z,19.60
2018-05-31T19:29:44.516Z,17.50
2018-05-31T19:32:12.819Z,20.63
2018-05-31T19:34:41.153Z,15.70
2018-05-31T19:37:13.490Z,16.00
2018-05-31T19:39:43.076Z,18.13
2018-05-31T19:42:17.272Z,16.40
2018-05-31T19:44:45.561Z,17.07
2018-05-31T19:47:13.835Z,18.20
2018-05-31T19:49:42.208Z,18.00
2018-05-31T19:52:16.278Z,14.77
2018-05-31T19:54:44.558Z,15.23
2018-05-31T19:57:14.983Z,16.27
2018-05-31T19:59:49.492Z,14.03
2018-05-31T20:02:24.494Z,16.40
2018-05-31T20:04:53.499Z,15.83
2018-05-31T20:07:22.362Z,16.63
2018-05-31T20:09:50.708Z,21.50
2018-05-31T20:12:21.258Z,16.87
2018-05-31T20:14:48.842Z,19.47
2018-05-31T20:17:18.199Z,18.33
2018-05-31T20:19:47.261Z,18.00
2018-05-31T20:22:15.525Z,21.03
2018-05-31T20:24:43.853Z,20.10
2018-05-31T20:27:13.950Z,22.93
2018-05-31T20:29:45.837Z,22.67
2018-05-31T20:32:14.391Z,20.37
2018-05-31T20:34:44.600Z,20.70
2018-05-31T20:37:12.966Z,17.87
2018-05-31T20:39:42.117Z,20.83
2018-05-31T20:42:10.362Z,22.70
2018-05-31T20:44:38.643Z,18.47
2018-05-31T20:47:08.221Z,18.17
2018-05-31T20:49:37.311Z,18.17
2018-05-31T20:52:05.663Z,20.70
2018-05-31T20:54:33.891Z,20.87
2018-05-31T20:57:02.199Z,23.50
2018-05-31T20:59:31.077Z,22.10
2018-05-31T21:02:00.591Z,20.77
2018-05-31T21:04:29.504Z,23.47
2018-05-31T21:06:58.481Z,29.47
2018-05-31T21:09:28.947Z,26.10
2018-05-31T21:11:57.309Z,23.90
2018-05-31T21:14:27.396Z,23.60
2018-05-31T21:16:55.683Z,25.23
2018-05-31T21:19:23.896Z,22.03
2018-05-31T21:21:52.939Z,20.47
2018-05-31T21:24:22.150Z,20.63
2018-05-31T21:26:50.428Z,20.17
2018-05-31T21:29:18.667Z,24.27
2018-05-31T21:31:48.002Z,21.77
2018-05-31T21:34:16.300Z,23.57
2018-05-31T21:36:45.402Z,26.93
2018-05-31T21:39:13.612Z,23.70
2018-05-31T21:41:42.657Z,24.77
2018-05-31T21:44:11.716Z,21.20
2018-05-31T21:46:39.976Z,23.17
2018-05-31T21:49:08.310Z,23.50
2018-05-31T21:51:37.122Z,28.47
2018-05-31T21:54:06.380Z,25.03
2018-05-31T21:56:34.670Z,26.73
2018-05-31T21:59:03.829Z,25.47
2018-05-31T22:01:32.957Z,26.50
2018-05-31T22:04:01.892Z,24.43
2018-05-31T22:06:30.970Z,25.23
2018-05-31T22:08:59.191Z,26.00
2018-05-31T22:11:27.591Z,30.13
2018-05-31T22:13:55.848Z,25.97
2018-05-31T22:16:24.909Z,27.37
2018-05-31T22:18:53.163Z,27.53
2018-05-31T22:21:21.433Z,26.53
2018-05-31T22:23:49.669Z,30.30
2018-05-31T22:26:19.879Z,29.50
2018-05-31T22:28:48.955Z,29.83
2018-05-31T22:31:17.565Z,29.37
2018-05-31T22:33:46.199Z,29.20
2018-05-31T22:36:14.494Z,34.33
2018-05-31T22:38:42.701Z,29.90
2018-05-31T22:41:11.063Z,28.10
2018-05-31T22:43:41.070Z,30.80
2018-05-31T22:46:09.495Z,31.47
2018-05-31T22:48:38.665Z,28.43
2018-05-31T22:51:07.803Z,28.13
2018-05-31T22:53:37.300Z,29.50
2018-05-31T22:56:06.411Z,30.10
2018-05-31T22:58:36.411Z,28.63
2018-05-31T23:01:04.938Z,29.17
2018-05-31T23:03:34.692Z,29.97
2018-05-31T23:06:03.019Z,27.80
2018-05-31T23:08:37.000Z,27.97
2018-05-31T23:11:05.486Z,29.20
2018-05-31T23:13:33.836Z,36.90
2018-05-31T23:16:02.544Z,40.10
2018-05-31T23:18:30.796Z,45.30
2018-05-31T23:20:59.308Z,59.07
2018-05-31T23:23:27.672Z,59.63
2018-05-31T23:25:56.772Z,64.53
2018-05-31T23:28:27.034Z,65.80
2018-05-31T23:30:55.852Z,77.23
2018-05-31T23:33:24.088Z,73.63
2018-05-31T23:35:53.831Z,75.30
2018-05-31T23:38:23.057Z,83.30
2018-05-31T23:40:51.382Z,82.80
2018-05-31T23:43:21.472Z,83.43
2018-05-31T23:45:49.787Z,74.70
2018-05-31T23:48:18.947Z,69.80
2018-05-31T23:50:47.753Z,70.27
2018-05-31T23:53:16.229Z,65.60
2018-05-31T23:55:45.035Z,68.27
2018-05-31T23:58:13.253Z,76.07
